KHAI

Details ICAO KHAI
Name THREE RIVERS MUNI DR HAINES
Region United States
Timezone America/Detroit (UTC-5.0)
Plans Departing 0
Arriving 1
Stats Elevation 824 ft / 251 m (AMSL)
Location 41.959572° -85.592872°
Runways 2
Magnetic Variation 5.542° W
Sunrise 2017-12-17 13:06:09 UTC / 2017-12-17 08:06:09 Local
Sunset 2017-12-17 22:13:48 UTC / 2017-12-17 17:13:48 Local
Advertisement - Login to hide

Runways

ID Width Length Bearing (true) Bearing (mag) Surface Threshold Offset Overrun Length
05 60 ft / 18 m 2,719 ft / 829 m 44.60° 50.14° Asphalt 0 ft / 0 m 250 ft / 76 m
09 75 ft / 23 m 3,991 ft / 1,217 m 89.72° 95.26° Asphalt 0 ft / 0 m 0 ft / 0 m
23 60 ft / 18 m 2,719 ft / 829 m 224.61° 230.15° Asphalt 0 ft / 0 m 397 ft / 121 m
27 75 ft / 23 m 3,991 ft / 1,217 m 269.73° 275.27° Asphalt 0 ft / 0 m 0 ft / 0 m

Map

Weather


0- 5 10 15 20 25 30 35+ Temperature / ° C

Clouds and Precipitation
Forecast for 2017-12-17 12:00 UTC. Updated an hour ago

Ground ~20,000 ft ~40,000 ft Winds

METAR

KHAI 171155Z AUTO 09006KT 1 1/2SM BR OVC003 M03/M03 A3012 RMK AO2 T10281031 11024 21038

TAF

Not found

Frequencies

Recorded 119.97 MHz AWOS 3
Approach 121.20 MHz KALAMAZOO APP/DEP
Unicom 122.80 MHz CTAF/UNICOM
Warning: Do not use this data for real-world aviation or navigation. No guarantee of current accuracy is given.